sensor_id;sensor_type;location;lat;lon;timestamp;pressure;altitude;pressure_sealevel;temperature;humidity
39769;BME280;38939;47.824;14.642;2024-01-15T00:00:42;95508.69;;;-2.82;81.24
39769;BME280;38939;47.824;14.642;2024-01-15T00:01:44;95513.47;;;-2.79;81.07
39769;BME280;38939;47.824;14.642;2024-01-15T00:02:46;95519.22;;;-2.77;81.68
39769;BME280;38939;47.824;14.642;2024-01-15T00:03:49;95511.41;;;-2.75;81.41
39769;BME280;38939;47.824;14.642;2024-01-15T00:04:50;95508.41;;;-2.71;81.46
39769;BME280;38939;47.824;14.642;2024-01-15T00:05:52;95501.25;;;-2.67;81.18
39769;BME280;38939;47.824;14.642;2024-01-15T00:06:54;95501.88;;;-2.65;81.25
39769;BME280;38939;47.824;14.642;2024-01-15T00:07:56;95501.09;;;-2.66;80.89
39769;BME280;38939;47.824;14.642;2024-01-15T00:08:58;95503.66;;;-2.66;81.31
39769;BME280;38939;47.824;14.642;2024-01-15T00:10:00;95506.34;;;-2.67;80.86
39769;BME280;38939;47.824;14.642;2024-01-15T00:11:03;95503.28;;;-2.71;81.26
39769;BME280;38939;47.824;14.642;2024-01-15T00:12:05;95496.75;;;-2.73;81.18
39769;BME280;38939;47.824;14.642;2024-01-15T00:13:07;95490.72;;;-2.72;81.20
39769;BME280;38939;47.824;14.642;2024-01-15T00:14:08;95473.78;;;-2.73;80.90
39769;BME280;38939;47.824;14.642;2024-01-15T00:15:11;95495.63;;;-2.71;81.42
39769;BME280;38939;47.824;14.642;2024-01-15T00:16:12;95487.97;;;-2.71;81.45
39769;BME280;38939;47.824;14.642;2024-01-15T00:17:14;95498.53;;;-2.66;81.33
39769;BME280;38939;47.824;14.642;2024-01-15T00:18:16;95493.13;;;-2.63;81.25
39769;BME280;38939;47.824;14.642;2024-01-15T00:19:18;95488.50;;;-2.59;81.20
39769;BME280;38939;47.824;14.642;2024-01-15T00:20:20;95485.66;;;-2.56;81.24
39769;BME280;38939;47.824;14.642;2024-01-15T00:21:22;95478.13;;;-2.57;81.14
39769;BME280;38939;47.824;14.642;2024-01-15T00:22:25;95468.84;;;-2.67;80.62
39769;BME280;38939;47.824;14.642;2024-01-15T00:23:27;95466.13;;;-2.73;81.17
39769;BME280;38939;47.824;14.642;2024-01-15T00:24:29;95464.69;;;-2.76;80.80
39769;BME280;38939;47.824;14.642;2024-01-15T00:25:31;95462.44;;;-2.71;81.06
39769;BME280;38939;47.824;14.642;2024-01-15T00:26:33;95477.81;;;-2.63;81.32
39769;BME280;38939;47.824;14.642;2024-01-15T00:27:35;95486.13;;;-2.60;81.31
39769;BME280;38939;47.824;14.642;2024-01-15T00:28:37;95468.72;;;-2.57;81.55
39769;BME280;38939;47.824;14.642;2024-01-15T00:29:39;95459.00;;;-2.53;81.35
39769;BME280;38939;47.824;14.642;2024-01-15T00:30:41;95461.56;;;-2.53;81.34
39769;BME280;38939;47.824;14.642;2024-01-15T00:31:42;95462.53;;;-2.54;81.18
39769;BME280;38939;47.824;14.642;2024-01-15T00:32:44;95466.19;;;-2.49;81.03
39769;BME280;38939;47.824;14.642;2024-01-15T00:33:46;95467.31;;;-2.43;81.27
39769;BME280;38939;47.824;14.642;2024-01-15T00:34:48;95453.59;;;-2.42;80.83
39769;BME280;38939;47.824;14.642;2024-01-15T00:35:50;95468.75;;;-2.41;80.85
39769;BME280;38939;47.824;14.642;2024-01-15T00:36:52;95474.97;;;-2.43;81.05
39769;BME280;38939;47.824;14.642;2024-01-15T00:37:54;95472.28;;;-2.42;81.30
39769;BME280;38939;47.824;14.642;2024-01-15T00:38:56;95476.59;;;-2.42;81.08
39769;BME280;38939;47.824;14.642;2024-01-15T00:39:58;95486.81;;;-2.42;81.28
39769;BME280;38939;47.824;14.642;2024-01-15T00:41:00;95483.28;;;-2.41;81.27
39769;BME280;38939;47.824;14.642;2024-01-15T00:42:02;95482.34;;;-2.40;81.57
39769;BME280;38939;47.824;14.642;2024-01-15T00:43:04;95492.38;;;-2.38;81.64
39769;BME280;38939;47.824;14.642;2024-01-15T00:44:09;95496.41;;;-2.36;81.05
39769;BME280;38939;47.824;14.642;2024-01-15T00:45:11;95492.56;;;-2.32;81.23
39769;BME280;38939;47.824;14.642;2024-01-15T00:46:13;95493.38;;;-2.31;81.02
39769;BME280;38939;47.824;14.642;2024-01-15T00:47:15;95496.53;;;-2.37;81.24
39769;BME280;38939;47.824;14.642;2024-01-15T00:48:17;95484.91;;;-2.40;80.84
39769;BME280;38939;47.824;14.642;2024-01-15T00:49:19;95482.00;;;-2.45;81.07
39769;BME280;38939;47.824;14.642;2024-01-15T00:50:21;95492.53;;;-2.48;81.26
39769;BME280;38939;47.824;14.642;2024-01-15T00:51:23;95494.09;;;-2.55;81.55
39769;BME280;38939;47.824;14.642;2024-01-15T00:52:25;95501.59;;;-2.62;81.82
39769;BME280;38939;47.824;14.642;2024-01-15T00:53:27;95500.44;;;-2.68;81.72
39769;BME280;38939;47.824;14.642;2024-01-15T00:54:29;95492.47;;;-2.65;81.66
39769;BME280;38939;47.824;14.642;2024-01-15T00:55:30;95490.25;;;-2.59;81.99
39769;BME280;38939;47.824;14.642;2024-01-15T00:56:32;95497.16;;;-2.52;81.65
39769;BME280;38939;47.824;14.642;2024-01-15T00:57:34;95508.66;;;-2.48;81.20
39769;BME280;38939;47.824;14.642;2024-01-15T00:58:36;95520.31;;;-2.45;81.23
39769;BME280;38939;47.824;14.642;2024-01-15T00:59:38;95505.31;;;-2.40;81.71
39769;BME280;38939;47.824;14.642;2024-01-15T01:00:40;95503.22;;;-2.45;81.52
39769;BME280;38939;47.824;14.642;2024-01-15T01:01:42;95499.56;;;-2.50;81.43
39769;BME280;38939;47.824;14.642;2024-01-15T01:02:45;95501.28;;;-2.51;81.51
39769;BME280;38939;47.824;14.642;2024-01-15T01:03:47;95512.97;;;-2.48;81.41
39769;BME280;38939;47.824;14.642;2024-01-15T01:04:49;95509.16;;;-2.44;81.19
39769;BME280;38939;47.824;14.642;2024-01-15T01:05:51;95492.84;;;-2.43;81.30
39769;BME280;38939;47.824;14.642;2024-01-15T01:06:53;95476.09;;;-2.46;81.08
39769;BME280;38939;47.824;14.642;2024-01-15T01:07:55;95476.59;;;-2.42;81.28
39769;BME280;38939;47.824;14.642;2024-01-15T01:08:57;95483.78;;;-2.37;81.23
39769;BME280;38939;47.824;14.642;2024-01-15T01:09:59;95486.81;;;-2.34;81.27
39769;BME280;38939;47.824;14.642;2024-01-15T01:11:00;95488.41;;;-2.33;81.54
39769;BME280;38939;47.824;14.642;2024-01-15T01:12:02;95498.97;;;-2.28;80.99
39769;BME280;38939;47.824;14.642;2024-01-15T01:13:04;95492.72;;;-2.25;81.36
39769;BME280;38939;47.824;14.642;2024-01-15T01:14:06;95495.13;;;-2.24;81.25
39769;BME280;38939;47.824;14.642;2024-01-15T01:15:08;95493.72;;;-2.26;80.57
39769;BME280;38939;47.824;14.642;2024-01-15T01:16:10;95490.66;;;-2.30;80.23
39769;BME280;38939;47.824;14.642;2024-01-15T01:17:12;95504.38;;;-2.31;80.23
39769;BME280;38939;47.824;14.642;2024-01-15T01:18:14;95493.06;;;-2.28;80.26
39769;BME280;38939;47.824;14.642;2024-01-15T01:19:16;95489.84;;;-2.30;80.65
39769;BME280;38939;47.824;14.642;2024-01-15T01:20:18;95489.53;;;-2.35;81.08
39769;BME280;38939;47.824;14.642;2024-01-15T01:21:20;95499.88;;;-2.37;81.48
39769;BME280;38939;47.824;14.642;2024-01-15T01:22:22;95509.97;;;-2.35;81.54
39769;BME280;38939;47.824;14.642;2024-01-15T01:23:25;95514.72;;;-2.41;81.78
39769;BME280;38939;47.824;14.642;2024-01-15T01:24:26;95511.72;;;-2.36;81.87
39769;BME280;38939;47.824;14.642;2024-01-15T01:25:28;95527.19;;;-2.37;81.76
39769;BME280;38939;47.824;14.642;2024-01-15T01:26:30;95511.72;;;-2.36;81.35
39769;BME280;38939;47.824;14.642;2024-01-15T01:27:32;95484.56;;;-2.37;81.78
39769;BME280;38939;47.824;14.642;2024-01-15T01:28:34;95492.88;;;-2.35;81.64
39769;BME280;38939;47.824;14.642;2024-01-15T01:29:36;95490.81;;;-2.31;81.43
39769;BME280;38939;47.824;14.642;2024-01-15T01:30:38;95498.63;;;-2.33;81.62
39769;BME280;38939;47.824;14.642;2024-01-15T01:31:44;95503.44;;;-2.30;81.88
39769;BME280;38939;47.824;14.642;2024-01-15T01:32:46;95496.41;;;-2.28;81.33
39769;BME280;38939;47.824;14.642;2024-01-15T01:33:48;95503.88;;;-2.34;81.09
39769;BME280;38939;47.824;14.642;2024-01-15T01:34:50;95500.19;;;-2.48;81.23
39769;BME280;38939;47.824;14.642;2024-01-15T01:35:52;95492.84;;;-2.43;82.07
39769;BME280;38939;47.824;14.642;2024-01-15T01:36:54;95482.34;;;-2.40;81.42
39769;BME280;38939;47.824;14.642;2024-01-15T01:37:56;95462.56;;;-2.38;82.19
39769;BME280;38939;47.824;14.642;2024-01-15T01:38:58;95468.13;;;-2.34;82.38
39769;BME280;38939;47.824;14.642;2024-01-15T01:40:00;95497.69;;;-2.32;82.57
39769;BME280;38939;47.824;14.642;2024-01-15T01:41:02;95482.34;;;-2.32;82.80
39769;BME280;38939;47.824;14.642;2024-01-15T01:42:03;95476.59;;;-2.34;82.67
39769;BME280;38939;47.824;14.642;2024-01-15T01:43:05;95476.28;;;-2.31;83.12
39769;BME280;38939;47.824;14.642;2024-01-15T01:44:07;95475.34;;;-2.30;82.59
39769;BME280;38939;47.824;14.642;2024-01-15T01:45:09;95463.19;;;-2.28;82.55
39769;BME280;38939;47.824;14.642;2024-01-15T01:46:11;95461.91;;;-2.32;82.55
39769;BME280;38939;47.824;14.642;2024-01-15T01:47:14;95482.34;;;-2.32;82.22
39769;BME280;38939;47.824;14.642;2024-01-15T01:48:16;95459.84;;;-2.28;82.68
39769;BME280;38939;47.824;14.642;2024-01-15T01:49:18;95452.34;;;-2.30;82.43
39769;BME280;38939;47.824;14.642;2024-01-15T01:50:20;95458.72;;;-2.34;82.91
39769;BME280;38939;47.824;14.642;2024-01-15T01:51:22;95459.81;;;-2.36;83.02
39769;BME280;38939;47.824;14.642;2024-01-15T01:52:24;95451.53;;;-2.30;83.45
39769;BME280;38939;47.824;14.642;2024-01-15T01:53:26;95437.97;;;-2.23;83.16
39769;BME280;38939;47.824;14.642;2024-01-15T01:54:29;95440.06;;;-2.26;82.50
39769;BME280;38939;47.824;14.642;2024-01-15T01:55:32;95437.16;;;-2.31;83.06
39769;BME280;38939;47.824;14.642;2024-01-15T01:56:36;95458.38;;;-2.39;82.88
39769;BME280;38939;47.824;14.642;2024-01-15T01:57:38;95448.81;;;-2.37;83.23
39769;BME280;38939;47.824;14.642;2024-01-15T01:58:40;95427.59;;;-2.37;83.49
39769;BME280;38939;47.824;14.642;2024-01-15T01:59:42;95438.28;;;-2.34;83.43
39769;BME280;38939;47.824;14.642;2024-01-15T02:00:44;95446.75;;;-2.33;83.43
39769;BME280;38939;47.824;14.642;2024-01-15T02:01:46;95443.41;;;-2.34;83.58
39769;BME280;38939;47.824;14.642;2024-01-15T02:02:48;95440.22;;;-2.28;83.57
39769;BME280;38939;47.824;14.642;2024-01-15T02:03:49;95426.47;;;-2.18;83.62
39769;BME280;38939;47.824;14.642;2024-01-15T02:04:51;95431.78;;;-2.12;83.13
39769;BME280;38939;47.824;14.642;2024-01-15T02:05:53;95453.63;;;-2.09;83.39
39769;BME280;38939;47.824;14.642;2024-01-15T02:06:55;95455.06;;;-2.07;83.44
39769;BME280;38939;47.824;14.642;2024-01-15T02:07:57;95448.03;;;-2.05;83.46
39769;BME280;38939;47.824;14.642;2024-01-15T02:08:59;95439.75;;;-2.07;83.68
39769;BME280;38939;47.824;14.642;2024-01-15T02:10:01;95451.38;;;-2.12;83.44
39769;BME280;38939;47.824;14.642;2024-01-15T02:11:03;95448.53;;;-2.17;83.55
39769;BME280;38939;47.824;14.642;2024-01-15T02:12:05;95434.47;;;-2.13;83.76
39769;BME280;38939;47.824;14.642;2024-01-15T02:13:07;95435.41;;;-2.06;83.82
39769;BME280;38939;47.824;14.642;2024-01-15T02:14:09;95431.59;;;-2.02;83.92
39769;BME280;38939;47.824;14.642;2024-01-15T02:15:12;95440.22;;;-2.03;83.85
39769;BME280;38939;47.824;14.642;2024-01-15T02:16:14;95430.94;;;-2.12;83.64
39769;BME280;38939;47.824;14.642;2024-01-15T02:17:16;95429.03;;;-2.10;83.75
39769;BME280;38939;47.824;14.642;2024-01-15T02:18:18;95418.16;;;-2.04;83.78
39769;BME280;38939;47.824;14.642;2024-01-15T02:19:21;95409.72;;;-1.96;83.84
39769;BME280;38939;47.824;14.642;2024-01-15T02:20:24;95409.06;;;-1.90;83.76
39769;BME280;38939;47.824;14.642;2024-01-15T02:21:26;95420.41;;;-1.93;83.36
39769;BME280;38939;47.824;14.642;2024-01-15T02:22:30;95428.06;;;-1.93;83.52
39769;BME280;38939;47.824;14.642;2024-01-15T02:23:32;95427.75;;;-1.98;83.27
39769;BME280;38939;47.824;14.642;2024-01-15T02:24:33;95417.72;;;-1.99;83.49
39769;BME280;38939;47.824;14.642;2024-01-15T02:25:44;95414.03;;;-1.97;83.73
39769;BME280;38939;47.824;14.642;2024-01-15T02:26:47;95408.75;;;-1.95;83.61
39769;BME280;38939;47.824;14.642;2024-01-15T02:27:49;95414.34;;;-1.92;83.48
39769;BME280;38939;47.824;14.642;2024-01-15T02:28:52;95420.75;;;-1.96;83.21
39769;BME280;38939;47.824;14.642;2024-01-15T02:29:53;95426.00;;;-1.97;83.26
39769;BME280;38939;47.824;14.642;2024-01-15T02:30:56;95419.78;;;-2.03;82.84
39769;BME280;38939;47.824;14.642;2024-01-15T02:31:58;95415.31;;;-2.09;82.89
39769;BME280;38939;47.824;14.642;2024-01-15T02:33:00;95413.69;;;-2.10;82.68
39769;BME280;38939;47.824;14.642;2024-01-15T02:34:02;95405.72;;;-2.15;83.17
39769;BME280;38939;47.824;14.642;2024-01-15T02:35:05;95420.41;;;-2.17;82.74
39769;BME280;38939;47.824;14.642;2024-01-15T02:36:06;95418.50;;;-2.24;83.28
39769;BME280;38939;47.824;14.642;2024-01-15T02:37:08;95420.91;;;-2.22;82.84
39769;BME280;38939;47.824;14.642;2024-01-15T02:38:10;95411.63;;;-2.23;82.69
39769;BME280;38939;47.824;14.642;2024-01-15T02:39:12;95407.00;;;-2.19;82.82
39769;BME280;38939;47.824;14.642;2024-01-15T02:40:14;95407.50;;;-2.16;82.75
39769;BME280;38939;47.824;14.642;2024-01-15T02:41:15;95412.75;;;-2.17;82.66
39769;BME280;38939;47.824;14.642;2024-01-15T02:42:17;95421.06;;;-2.15;82.64
39769;BME280;38939;47.824;14.642;2024-01-15T02:43:19;95415.47;;;-2.11;83.01
39769;BME280;38939;47.824;14.642;2024-01-15T02:44:21;95420.28;;;-2.08;82.85
39769;BME280;38939;47.824;14.642;2024-01-15T02:45:23;95428.56;;;-2.06;82.63
39769;BME280;38939;47.824;14.642;2024-01-15T02:46:25;95431.44;;;-2.09;82.64
39769;BME280;38939;47.824;14.642;2024-01-15T02:47:27;95424.56;;;-2.08;82.69
39769;BME280;38939;47.824;14.642;2024-01-15T02:48:29;95420.09;;;-2.06;82.38
39769;BME280;38939;47.824;14.642;2024-01-15T02:49:31;95425.53;;;-2.09;82.42
39769;BME280;38939;47.824;14.642;2024-01-15T02:50:34;95431.91;;;-2.13;82.62
39769;BME280;38939;47.824;14.642;2024-01-15T02:51:36;95432.41;;;-2.10;82.87
39769;BME280;38939;47.824;14.642;2024-01-15T02:52:38;95436.25;;;-2.06;82.81
39769;BME280;38939;47.824;14.642;2024-01-15T02:53:40;95436.06;;;-2.04;82.67
39769;BME280;38939;47.824;14.642;2024-01-15T02:54:41;95418.50;;;-1.99;82.83
39769;BME280;38939;47.824;14.642;2024-01-15T02:55:43;95423.63;;;-1.99;83.00
39769;BME280;38939;47.824;14.642;2024-01-15T02:56:45;95419.78;;;-1.95;82.56
39769;BME280;38939;47.824;14.642;2024-01-15T02:57:47;95425.22;;;-1.90;82.49
39769;BME280;38939;47.824;14.642;2024-01-15T02:58:49;95439.44;;;-1.87;82.30
39769;BME280;38939;47.824;14.642;2024-01-15T02:59:51;95444.19;;;-1.84;82.37
39769;BME280;38939;47.824;14.642;2024-01-15T03:00:53;95430.47;;;-1.83;82.30
39769;BME280;38939;47.824;14.642;2024-01-15T03:01:55;95424.56;;;-1.84;81.85
39769;BME280;38939;47.824;14.642;2024-01-15T03:02:56;95432.88;;;-1.82;81.80
39769;BME280;38939;47.824;14.642;2024-01-15T03:03:58;95419.13;;;-1.89;81.27
39769;BME280;38939;47.824;14.642;2024-01-15T03:05:00;95432.69;;;-1.88;81.55
39769;BME280;38939;47.824;14.642;2024-01-15T03:06:02;95428.41;;;-1.88;81.34
39769;BME280;38939;47.824;14.642;2024-01-15T03:07:04;95422.81;;;-1.83;81.22
39769;BME280;38939;47.824;14.642;2024-01-15T03:08:06;95429.69;;;-1.84;81.65
39769;BME280;38939;47.824;14.642;2024-01-15T03:09:08;95426.63;;;-1.79;81.49
39769;BME280;38939;47.824;14.642;2024-01-15T03:10:10;95432.22;;;-1.75;81.33
39769;BME280;38939;47.824;14.642;2024-01-15T03:11:12;95431.41;;;-1.76;80.96
39769;BME280;38939;47.824;14.642;2024-01-15T03:12:14;95425.50;;;-1.76;81.17
39769;BME280;38939;47.824;14.642;2024-01-15T03:13:16;95420.09;;;-1.73;81.32
39769;BME280;38939;47.824;14.642;2024-01-15T03:14:17;95416.56;;;-1.72;81.31
39769;BME280;38939;47.824;14.642;2024-01-15T03:15:19;95424.84;;;-1.70;81.20
39769;BME280;38939;47.824;14.642;2024-01-15T03:16:21;95433.50;;;-1.71;81.26
39769;BME280;38939;47.824;14.642;2024-01-15T03:17:23;95441.19;;;-1.71;81.26
39769;BME280;38939;47.824;14.642;2024-01-15T03:18:25;95445.00;;;-1.75;80.90
39769;BME280;38939;47.824;14.642;2024-01-15T03:19:27;95440.34;;;-1.80;80.47
39769;BME280;38939;47.824;14.642;2024-01-15T03:20:30;95452.34;;;-1.89;80.43
39769;BME280;38939;47.824;14.642;2024-01-15T03:21:32;95460.34;;;-1.92;80.73
39769;BME280;38939;47.824;14.642;2024-01-15T03:22:34;95444.53;;;-1.87;80.87
39769;BME280;38939;47.824;14.642;2024-01-15T03:23:36;95443.88;;;-1.81;80.83
39769;BME280;38939;47.824;14.642;2024-01-15T03:24:37;95444.19;;;-1.76;81.08
39769;BME280;38939;47.824;14.642;2024-01-15T03:25:39;95452.97;;;-1.70;81.13
39769;BME280;38939;47.824;14.642;2024-01-15T03:26:41;95462.06;;;-1.68;80.71
39769;BME280;38939;47.824;14.642;2024-01-15T03:27:43;95457.59;;;-1.66;80.92
39769;BME280;38939;47.824;14.642;2024-01-15T03:28:45;95449.78;;;-1.64;80.81
39769;BME280;38939;47.824;14.642;2024-01-15T03:29:47;95446.91;;;-1.61;80.60
39769;BME280;38939;47.824;14.642;2024-01-15T03:30:49;95450.75;;;-1.57;80.58
39769;BME280;38939;47.824;14.642;2024-01-15T03:31:50;95453.13;;;-1.55;80.54
39769;BME280;38939;47.824;14.642;2024-01-15T03:32:52;95456.34;;;-1.53;80.62
39769;BME280;38939;47.824;14.642;2024-01-15T03:33:55;95453.59;;;-1.52;80.34
39769;BME280;38939;47.824;14.642;2024-01-15T03:34:56;95460.31;;;-1.51;80.27
39769;BME280;38939;47.824;14.642;2024-01-15T03:35:59;95455.19;;;-1.51;80.02
39769;BME280;38939;47.824;14.642;2024-01-15T03:37:01;95465.44;;;-1.51;79.77
39769;BME280;38939;47.824;14.642;2024-01-15T03:38:02;95462.09;;;-1.51;79.97
39769;BME280;38939;47.824;14.642;2024-01-15T03:39:04;95467.84;;;-1.49;80.00
39769;BME280;38939;47.824;14.642;2024-01-15T03:40:06;95475.00;;;-1.45;79.81
39769;BME280;38939;47.824;14.642;2024-01-15T03:41:09;95472.13;;;-1.42;80.08
39769;BME280;38939;47.824;14.642;2024-01-15T03:42:11;95464.78;;;-1.45;79.95
39769;BME280;38939;47.824;14.642;2024-01-15T03:43:13;95473.09;;;-1.43;79.99
39769;BME280;38939;47.824;14.642;2024-01-15T03:44:15;95473.72;;;-1.41;80.14
39769;BME280;38939;47.824;14.642;2024-01-15T03:45:17;95474.03;;;-1.35;79.98
39769;BME280;38939;47.824;14.642;2024-01-15T03:46:18;95464.13;;;-1.38;79.91
39769;BME280;38939;47.824;14.642;2024-01-15T03:47:20;95470.19;;;-1.39;79.26
39769;BME280;38939;47.824;14.642;2024-01-15T03:48:22;95468.13;;;-1.36;79.64
39769;BME280;38939;47.824;14.642;2024-01-15T03:49:24;95477.56;;;-1.36;79.51
39769;BME280;38939;47.824;14.642;2024-01-15T03:50:26;95475.00;;;-1.36;79.61
39769;BME280;38939;47.824;14.642;2024-01-15T03:51:28;95472.75;;;-1.48;79.54
39769;BME280;38939;47.824;14.642;2024-01-15T03:52:30;95467.34;;;-1.53;80.18
39769;BME280;38939;47.824;14.642;2024-01-15T03:53:32;95465.09;;;-1.48;80.32
39769;BME280;38939;47.824;14.642;2024-01-15T03:54:34;95462.06;;;-1.43;80.56
39769;BME280;38939;47.824;14.642;2024-01-15T03:55:36;95467.19;;;-1.43;80.78
39769;BME280;38939;47.824;14.642;2024-01-15T03:56:38;95467.00;;;-1.42;81.07
39769;BME280;38939;47.824;14.642;2024-01-15T03:57:40;95467.31;;;-1.36;80.94
39769;BME280;38939;47.824;14.642;2024-01-15T03:58:41;95468.91;;;-1.35;81.38
39769;BME280;38939;47.824;14.642;2024-01-15T03:59:43;95461.22;;;-1.35;81.69
39769;BME280;38939;47.824;14.642;2024-01-15T04:00:46;95476.94;;;-1.47;81.66
39769;BME280;38939;47.824;14.642;2024-01-15T04:01:48;95483.66;;;-1.54;81.83
39769;BME280;38939;47.824;14.642;2024-01-15T04:02:51;95482.53;;;-1.51;82.01
39769;BME280;38939;47.824;14.642;2024-01-15T04:03:53;95483.00;;;-1.56;82.78
39769;BME280;38939;47.824;14.642;2024-01-15T04:04:55;95481.44;;;-1.57;83.19
39769;BME280;38939;47.824;14.642;2024-01-15T04:05:57;95487.47;;;-1.58;83.30
39769;BME280;38939;47.824;14.642;2024-01-15T04:06:59;95489.41;;;-1.52;83.21
39769;BME280;38939;47.824;14.642;2024-01-15T04:08:01;95487.81;;;-1.53;83.09
39769;BME280;38939;47.824;14.642;2024-01-15T04:09:03;95493.56;;;-1.51;83.47
39769;BME280;38939;47.824;14.642;2024-01-15T04:10:05;95483.97;;;-1.49;83.67
39769;BME280;38939;47.824;14.642;2024-01-15T04:11:07;95482.34;;;-1.50;83.50
39769;BME280;38939;47.824;14.642;2024-01-15T04:12:09;95480.28;;;-1.54;83.94
39769;BME280;38939;47.824;14.642;2024-01-15T04:13:11;95479.81;;;-1.58;84.38
39769;BME280;38939;47.824;14.642;2024-01-15T04:14:13;95479.00;;;-1.50;84.29
39769;BME280;38939;47.824;14.642;2024-01-15T04:15:15;95491.94;;;-1.44;85.13
39769;BME280;38939;47.824;14.642;2024-01-15T04:16:17;95497.03;;;-1.35;85.72
39769;BME280;38939;47.824;14.642;2024-01-15T04:17:19;95494.00;;;-1.23;87.00
39769;BME280;38939;47.824;14.642;2024-01-15T04:18:20;95494.63;;;-1.12;87.46
39769;BME280;38939;47.824;14.642;2024-01-15T04:19:22;95482.94;;;-1.07;87.66
39769;BME280;38939;47.824;14.642;2024-01-15T04:20:24;95489.31;;;-1.03;87.47
39769;BME280;38939;47.824;14.642;2024-01-15T04:21:26;95482.09;;;-0.99;87.54
39769;BME280;38939;47.824;14.642;2024-01-15T04:22:28;95485.63;;;-1.00;87.41
39769;BME280;38939;47.824;14.642;2024-01-15T04:23:30;95491.06;;;-0.95;87.43
39769;BME280;38939;47.824;14.642;2024-01-15T04:24:32;95495.03;;;-0.92;87.39
39769;BME280;38939;47.824;14.642;2024-01-15T04:25:34;95500.63;;;-0.89;87.32
39769;BME280;38939;47.824;14.642;2024-01-15T04:26:36;95499.50;;;-0.86;87.52
39769;BME280;38939;47.824;14.642;2024-01-15T04:27:38;95510.22;;;-0.83;87.58
39769;BME280;38939;47.824;14.642;2024-01-15T04:28:39;95497.69;;;-0.77;87.18
39769;BME280;38939;47.824;14.642;2024-01-15T04:29:42;95496.25;;;-0.72;87.07
39769;BME280;38939;47.824;14.642;2024-01-15T04:30:46;95490.13;;;-0.63;86.48
39769;BME280;38939;47.824;14.642;2024-01-15T04:31:48;95487.78;;;-0.41;85.24
39769;BME280;38939;47.824;14.642;2024-01-15T04:32:50;95493.47;;;-0.31;85.08
39769;BME280;38939;47.824;14.642;2024-01-15T04:33:52;95491.22;;;-0.26;85.19
39769;BME280;38939;47.824;14.642;2024-01-15T04:34:55;95484.78;;;-0.22;84.45
39769;BME280;38939;47.824;14.642;2024-01-15T04:35:56;95492.94;;;-0.18;84.71
39769;BME280;38939;47.824;14.642;2024-01-15T04:36:58;95505.56;;;-0.16;85.09
39769;BME280;38939;47.824;14.642;2024-01-15T04:38:00;95510.53;;;-0.15;84.82
39769;BME280;38939;47.824;14.642;2024-01-15T04:39:02;95516.44;;;-0.14;85.17
39769;BME280;38939;47.824;14.642;2024-01-15T04:40:04;95509.56;;;-0.14;84.86
39769;BME280;38939;47.824;14.642;2024-01-15T04:41:09;95507.63;;;-0.12;85.14
39769;BME280;38939;47.824;14.642;2024-01-15T04:42:11;95517.53;;;-0.09;85.29
39769;BME280;38939;47.824;14.642;2024-01-15T04:43:12;95513.19;;;-0.08;84.69
39769;BME280;38939;47.824;14.642;2024-01-15T04:44:14;95505.97;;;-0.05;84.02
39769;BME280;38939;47.824;14.642;2024-01-15T04:45:17;95514.91;;;-0.01;83.02
39769;BME280;38939;47.824;14.642;2024-01-15T04:46:20;95535.44;;;-0.01;83.25
39769;BME280;38939;47.824;14.642;2024-01-15T04:47:22;95525.63;;;0.03;82.28
39769;BME280;38939;47.824;14.642;2024-01-15T04:48:24;95523.38;;;0.08;81.18
39769;BME280;38939;47.824;14.642;2024-01-15T04:49:25;95511.19;;;0.10;80.60
39769;BME280;38939;47.824;14.642;2024-01-15T04:50:31;95509.25;;;0.12;80.54
39769;BME280;38939;47.824;14.642;2024-01-15T04:51:34;95516.75;;;0.14;80.37
39769;BME280;38939;47.824;14.642;2024-01-15T04:52:36;95524.28;;;0.15;80.12
39769;BME280;38939;47.824;14.642;2024-01-15T04:53:37;95502.63;;;0.18;79.29
39769;BME280;38939;47.824;14.642;2024-01-15T04:54:39;95515.28;;;0.19;79.73
39769;BME280;38939;47.824;14.642;2024-01-15T04:55:41;95536.41;;;0.22;78.74
39769;BME280;38939;47.824;14.642;2024-01-15T04:56:43;95532.69;;;0.24;77.66
39769;BME280;38939;47.824;14.642;2024-01-15T04:57:46;95492.75;;;0.30;75.53
39769;BME280;38939;47.824;14.642;2024-01-15T04:58:48;95512.56;;;0.36;77.13
39769;BME280;38939;47.824;14.642;2024-01-15T04:59:49;95510.00;;;0.36;77.35
39769;BME280;38939;47.824;14.642;2024-01-15T05:00:51;95511.63;;;0.37;76.92
39769;BME280;38939;47.824;14.642;2024-01-15T05:01:54;95512.50;;;0.44;74.10
39769;BME280;38939;47.824;14.642;2024-01-15T05:02:56;95512.00;;;0.49;73.85
39769;BME280;38939;47.824;14.642;2024-01-15T05:03:58;95494.47;;;0.52;73.81
39769;BME280;38939;47.824;14.642;2024-01-15T05:05:01;95504.75;;;0.52;74.43
39769;BME280;38939;47.824;14.642;2024-01-15T05:06:03;95520.13;;;0.52;73.79
39769;BME280;38939;47.824;14.642;2024-01-15T05:07:05;95503.16;;;0.51;74.65
39769;BME280;38939;47.824;14.642;2024-01-15T05:08:07;95498.66;;;0.53;74.37
39769;BME280;38939;47.824;14.642;2024-01-15T05:09:08;95502.00;;;0.54;75.01
39769;BME280;38939;47.824;14.642;2024-01-15T05:10:10;95521.75;;;0.53;75.02
39769;BME280;38939;47.824;14.642;2024-01-15T05:11:12;95494.47;;;0.52;74.84
39769;BME280;38939;47.824;14.642;2024-01-15T05:12:14;95465.56;;;0.58;74.71
39769;BME280;38939;47.824;14.642;2024-01-15T05:13:16;95475.81;;;0.58;74.72
39769;BME280;38939;47.824;14.642;2024-01-15T05:14:18;95490.59;;;0.56;74.94
39769;BME280;38939;47.824;14.642;2024-01-15T05:15:23;95505.81;;;0.58;75.08
39769;BME280;38939;47.824;14.642;2024-01-15T05:16:25;95505.66;;;0.59;75.01
39769;BME280;38939;47.824;14.642;2024-01-15T05:17:26;95508.22;;;0.59;74.79
39769;BME280;38939;47.824;14.642;2024-01-15T05:18:28;95498.59;;;0.62;75.11
39769;BME280;38939;47.824;14.642;2024-01-15T05:19:30;95491.50;;;0.64;74.44
39769;BME280;38939;47.824;14.642;2024-01-15T05:20:33;95498.22;;;0.65;75.34
39769;BME280;38939;47.824;14.642;2024-01-15T05:21:36;95499.03;;;0.65;74.36
39769;BME280;38939;47.824;14.642;2024-01-15T05:22:38;95506.56;;;0.67;75.38
39769;BME280;38939;47.824;14.642;2024-01-15T05:23:40;95487.63;;;0.68;75.68
39769;BME280;38939;47.824;14.642;2024-01-15T05:24:42;95471.44;;;0.67;76.34